This is the latest recevied weather packets stored in our database for station/object LRSV. If no packets are shown the sender has not sent any weather packets the latest 1 day(s).
| Time | Temp. | Humidity | Pressure | Rain* | Wind** | Luminosity | Snow |
|---|---|---|---|---|---|---|---|
| 1836274143 | 17.22° C | 83% | 1027 hPa | - | 4.02 m/s, 330° | - | - |
| 1778032100 | 12.22° C | 63% | 1012 hPa | - | 4.47 m/s, 210° | - | - |
| 1778031200 | 12.22° C | 63% | 1012 hPa | - | 4.47 m/s, 210° | - | - |
| 1778030301 | 12.22° C | 63% | 1012 hPa | - | 4.92 m/s, 220° | - | - |
| 1778029400 | 12.22° C | 63% | 1012 hPa | - | 4.92 m/s, 220° | - | - |
| 1778028500 | 12.78° C | 59% | 1012 hPa | - | 4.47 m/s, 210° | - | - |
| 1778027677 | 12.78° C | 59% | 1012 hPa | - | 4.47 m/s, 210° | - | - |
| 1778026701 | 12.78° C | 63% | 1012 hPa | - | 4.47 m/s, 210° | - | - |
| 1778025801 | 12.78° C | 63% | 1012 hPa | - | 4.47 m/s, 210° | - | - |
| 1778024900 | 13.89° C | 55% | 1012 hPa | - | 3.58 m/s, 190° | - | - |
| 1778024000 | 13.89° C | 55% | 1012 hPa | - | 3.58 m/s, 190° | - | - |
| 1778023100 | 13.89° C | 59% | 1012 hPa | - | 4.02 m/s, 190° | - | - |
| 1778022200 | 13.89° C | 59% | 1012 hPa | - | 4.02 m/s, 190° | - | - |
| 1778021300 | 12.78° C | 63% | 1012 hPa | - | 4.47 m/s, 180° | - | - |
| 1778020400 | 12.78° C | 63% | 1012 hPa | - | 4.47 m/s, 180° | - | - |
| 1778019497 | 13.89° C | 59% | 1012 hPa | - | 4.47 m/s, 180° | - | - |
| 1778018600 | 13.89° C | 59% | 1012 hPa | - | 4.47 m/s, 180° | - | - |
| 1778017701 | 13.89° C | 55% | 1012 hPa | - | 4.47 m/s, 180° | - | - |
| 1778016800 | 13.89° C | 55% | 1012 hPa | - | 4.47 m/s, 180° | - | - |
| 1778015900 | 15° C | 48% | 1012 hPa | - | 4.92 m/s, 170° | - | - |
| 1778015000 | 15° C | 48% | 1012 hPa | - | 4.92 m/s, 170° | - | - |
| 1778014102 | 15° C | 48% | 1012 hPa | - | 4.92 m/s, 180° | - | - |
| 1778013200 | 15° C | 48% | 1012 hPa | - | 4.92 m/s, 180° | - | - |
| 1778012331 | 15° C | 45% | 1012 hPa | - | 4.02 m/s, 170° | - | - |
| 1778011400 | 15° C | 45% | 1012 hPa | - | 4.02 m/s, 170° | - | - |
* Rain since midnight (hover to see other rain measurements)
** Current wind speed in m/s (hover to see current wind gust speed)